sensor_id;sensor_type;location;lat;lon;timestamp;P1;durP1;ratioP1;P2;durP2;ratioP2
21558;SDS011;10940;48.890;8.240;2022-09-03T00:02:14;0.93;;;0.57;;
21558;SDS011;10940;48.890;8.240;2022-09-03T00:07:25;1.07;;;1.00;;
21558;SDS011;10940;48.890;8.240;2022-09-03T00:10:05;4.83;;;1.83;;
21558;SDS011;10940;48.890;8.240;2022-09-03T00:12:36;0.97;;;0.93;;
21558;SDS011;10940;48.890;8.240;2022-09-03T00:17:37;3.03;;;1.57;;
21558;SDS011;10940;48.890;8.240;2022-09-03T00:20:07;1.40;;;1.10;;
21558;SDS011;10940;48.890;8.240;2022-09-03T00:22:53;0.43;;;0.43;;
21558;SDS011;10940;48.890;8.240;2022-09-03T00:25:28;0.77;;;0.77;;
21558;SDS011;10940;48.890;8.240;2022-09-03T00:28:10;0.73;;;0.73;;
21558;SDS011;10940;48.890;8.240;2022-09-03T00:30:40;0.93;;;0.93;;
21558;SDS011;10940;48.890;8.240;2022-09-03T00:33:10;0.70;;;0.70;;
21558;SDS011;10940;48.890;8.240;2022-09-03T00:35:47;0.97;;;0.90;;
21558;SDS011;10940;48.890;8.240;2022-09-03T00:38:17;5.50;;;1.10;;
21558;SDS011;10940;48.890;8.240;2022-09-03T00:43:36;1.30;;;0.93;;
21558;SDS011;10940;48.890;8.240;2022-09-03T00:46:32;0.70;;;0.70;;
21558;SDS011;10940;48.890;8.240;2022-09-03T00:58:31;1.20;;;1.10;;
21558;SDS011;10940;48.890;8.240;2022-09-03T01:00:38;0.50;;;0.50;;
21558;SDS011;10940;48.890;8.240;2022-09-03T01:16:56;1.07;;;1.07;;
21558;SDS011;10940;48.890;8.240;2022-09-03T01:25:14;0.60;;;0.60;;
21558;SDS011;10940;48.890;8.240;2022-09-03T01:28:01;3.70;;;1.43;;
21558;SDS011;10940;48.890;8.240;2022-09-03T01:30:43;0.97;;;0.97;;
21558;SDS011;10940;48.890;8.240;2022-09-03T01:33:18;0.90;;;0.90;;
21558;SDS011;10940;48.890;8.240;2022-09-03T01:46:59;1.50;;;1.37;;
21558;SDS011;10940;48.890;8.240;2022-09-03T01:49:48;1.17;;;1.00;;
21558;SDS011;10940;48.890;8.240;2022-09-03T01:52:42;4.83;;;1.33;;
21558;SDS011;10940;48.890;8.240;2022-09-03T01:58:28;1.37;;;1.27;;
21558;SDS011;10940;48.890;8.240;2022-09-03T02:00:45;3.80;;;1.20;;
21558;SDS011;10940;48.890;8.240;2022-09-03T02:03:21;2.20;;;1.00;;
21558;SDS011;10940;48.890;8.240;2022-09-03T02:05:48;0.70;;;0.70;;
21558;SDS011;10940;48.890;8.240;2022-09-03T02:08:17;1.10;;;1.00;;
21558;SDS011;10940;48.890;8.240;2022-09-03T02:10:47;1.03;;;1.00;;
21558;SDS011;10940;48.890;8.240;2022-09-03T02:13:19;1.00;;;1.00;;
21558;SDS011;10940;48.890;8.240;2022-09-03T02:15:51;1.83;;;0.93;;
21558;SDS011;10940;48.890;8.240;2022-09-03T02:18:19;1.10;;;1.00;;
21558;SDS011;10940;48.890;8.240;2022-09-03T02:20:51;0.90;;;0.90;;
21558;SDS011;10940;48.890;8.240;2022-09-03T02:23:18;0.80;;;0.80;;
21558;SDS011;10940;48.890;8.240;2022-09-03T02:25:45;0.77;;;0.77;;
21558;SDS011;10940;48.890;8.240;2022-09-03T02:28:15;1.03;;;0.90;;
21558;SDS011;10940;48.890;8.240;2022-09-03T02:30:41;1.67;;;1.30;;
21558;SDS011;10940;48.890;8.240;2022-09-03T02:33:06;2.20;;;1.07;;
21558;SDS011;10940;48.890;8.240;2022-09-03T02:35:33;1.73;;;1.57;;
21558;SDS011;10940;48.890;8.240;2022-09-03T02:38:09;1.93;;;1.43;;
21558;SDS011;10940;48.890;8.240;2022-09-03T02:40:42;2.67;;;1.50;;
21558;SDS011;10940;48.890;8.240;2022-09-03T02:43:11;0.70;;;0.70;;
21558;SDS011;10940;48.890;8.240;2022-09-03T02:45:51;0.93;;;0.90;;
21558;SDS011;10940;48.890;8.240;2022-09-03T02:48:22;1.13;;;1.10;;
21558;SDS011;10940;48.890;8.240;2022-09-03T02:50:48;0.97;;;0.97;;
21558;SDS011;10940;48.890;8.240;2022-09-03T02:53:14;1.70;;;1.53;;
21558;SDS011;10940;48.890;8.240;2022-09-03T02:55:40;1.07;;;1.07;;
21558;SDS011;10940;48.890;8.240;2022-09-03T02:58:07;1.40;;;1.30;;
21558;SDS011;10940;48.890;8.240;2022-09-03T03:00:33;0.87;;;0.87;;
21558;SDS011;10940;48.890;8.240;2022-09-03T03:03:00;1.77;;;1.63;;
21558;SDS011;10940;48.890;8.240;2022-09-03T03:06:00;1.30;;;1.27;;
21558;SDS011;10940;48.890;8.240;2022-09-03T03:08:23;1.27;;;1.17;;
21558;SDS011;10940;48.890;8.240;2022-09-03T03:10:51;1.93;;;1.13;;
21558;SDS011;10940;48.890;8.240;2022-09-03T03:13:20;1.53;;;1.30;;
21558;SDS011;10940;48.890;8.240;2022-09-03T03:15:46;3.73;;;1.70;;
21558;SDS011;10940;48.890;8.240;2022-09-03T03:18:12;1.13;;;0.90;;
21558;SDS011;10940;48.890;8.240;2022-09-03T03:20:39;0.93;;;0.93;;
21558;SDS011;10940;48.890;8.240;2022-09-03T03:23:05;1.57;;;0.90;;
21558;SDS011;10940;48.890;8.240;2022-09-03T03:25:32;1.20;;;1.10;;
21558;SDS011;10940;48.890;8.240;2022-09-03T03:27:58;1.40;;;1.17;;
21558;SDS011;10940;48.890;8.240;2022-09-03T03:30:25;0.90;;;0.90;;
21558;SDS011;10940;48.890;8.240;2022-09-03T03:32:52;1.20;;;1.07;;
21558;SDS011;10940;48.890;8.240;2022-09-03T03:35:18;2.03;;;1.10;;
21558;SDS011;10940;48.890;8.240;2022-09-03T03:37:43;1.17;;;0.90;;
21558;SDS011;10940;48.890;8.240;2022-09-03T03:40:09;0.67;;;0.67;;
21558;SDS011;10940;48.890;8.240;2022-09-03T03:42:35;1.23;;;1.07;;
21558;SDS011;10940;48.890;8.240;2022-09-03T03:45:01;1.60;;;0.93;;
21558;SDS011;10940;48.890;8.240;2022-09-03T03:47:28;0.80;;;0.80;;
21558;SDS011;10940;48.890;8.240;2022-09-03T03:49:56;0.80;;;0.73;;
21558;SDS011;10940;48.890;8.240;2022-09-03T03:52:23;0.83;;;0.80;;
21558;SDS011;10940;48.890;8.240;2022-09-03T03:54:49;0.73;;;0.73;;
21558;SDS011;10940;48.890;8.240;2022-09-03T03:57:15;1.40;;;1.27;;
21558;SDS011;10940;48.890;8.240;2022-09-03T03:59:41;1.13;;;1.03;;
21558;SDS011;10940;48.890;8.240;2022-09-03T04:02:06;6.17;;;1.20;;
21558;SDS011;10940;48.890;8.240;2022-09-03T04:04:32;1.10;;;1.00;;
21558;SDS011;10940;48.890;8.240;2022-09-03T04:06:57;1.43;;;1.00;;
21558;SDS011;10940;48.890;8.240;2022-09-03T04:09:23;2.07;;;1.67;;
21558;SDS011;10940;48.890;8.240;2022-09-03T04:11:49;1.57;;;1.47;;
21558;SDS011;10940;48.890;8.240;2022-09-03T04:14:15;1.80;;;1.63;;
21558;SDS011;10940;48.890;8.240;2022-09-03T04:16:42;2.30;;;0.97;;
21558;SDS011;10940;48.890;8.240;2022-09-03T04:19:10;0.97;;;0.90;;
21558;SDS011;10940;48.890;8.240;2022-09-03T04:21:36;1.17;;;1.07;;
21558;SDS011;10940;48.890;8.240;2022-09-03T04:24:02;1.60;;;1.13;;
21558;SDS011;10940;48.890;8.240;2022-09-03T04:26:29;1.90;;;1.10;;
21558;SDS011;10940;48.890;8.240;2022-09-03T04:28:56;0.90;;;0.90;;
21558;SDS011;10940;48.890;8.240;2022-09-03T04:31:23;1.30;;;1.00;;
21558;SDS011;10940;48.890;8.240;2022-09-03T04:33:48;1.73;;;1.60;;
21558;SDS011;10940;48.890;8.240;2022-09-03T04:36:16;1.30;;;1.20;;
21558;SDS011;10940;48.890;8.240;2022-09-03T04:38:43;0.80;;;0.80;;
21558;SDS011;10940;48.890;8.240;2022-09-03T04:41:12;1.00;;;0.90;;
21558;SDS011;10940;48.890;8.240;2022-09-03T04:43:40;1.23;;;1.07;;
21558;SDS011;10940;48.890;8.240;2022-09-03T04:46:07;1.30;;;1.20;;
21558;SDS011;10940;48.890;8.240;2022-09-03T04:48:34;3.33;;;1.57;;
21558;SDS011;10940;48.890;8.240;2022-09-03T04:51:01;1.60;;;1.07;;
21558;SDS011;10940;48.890;8.240;2022-09-03T04:53:44;1.10;;;1.00;;
21558;SDS011;10940;48.890;8.240;2022-09-03T04:56:14;1.53;;;0.90;;
21558;SDS011;10940;48.890;8.240;2022-09-03T04:58:45;1.27;;;1.17;;
21558;SDS011;10940;48.890;8.240;2022-09-03T05:01:14;1.67;;;1.37;;
21558;SDS011;10940;48.890;8.240;2022-09-03T05:03:45;7.33;;;1.27;;
21558;SDS011;10940;48.890;8.240;2022-09-03T05:06:11;2.17;;;1.23;;
21558;SDS011;10940;48.890;8.240;2022-09-03T05:08:37;0.93;;;0.93;;
21558;SDS011;10940;48.890;8.240;2022-09-03T05:11:03;7.37;;;1.30;;
21558;SDS011;10940;48.890;8.240;2022-09-03T05:13:30;1.03;;;0.90;;
21558;SDS011;10940;48.890;8.240;2022-09-03T05:15:58;1.37;;;0.97;;
21558;SDS011;10940;48.890;8.240;2022-09-03T05:18:24;1.20;;;1.10;;
21558;SDS011;10940;48.890;8.240;2022-09-03T05:20:56;0.73;;;0.73;;
21558;SDS011;10940;48.890;8.240;2022-09-03T05:23:23;1.40;;;1.30;;
21558;SDS011;10940;48.890;8.240;2022-09-03T05:25:55;1.43;;;1.27;;
21558;SDS011;10940;48.890;8.240;2022-09-03T05:28:23;0.87;;;0.77;;
21558;SDS011;10940;48.890;8.240;2022-09-03T05:30:58;0.70;;;0.70;;
21558;SDS011;10940;48.890;8.240;2022-09-03T05:33:27;1.33;;;1.23;;
21558;SDS011;10940;48.890;8.240;2022-09-03T05:35:53;1.07;;;1.07;;
21558;SDS011;10940;48.890;8.240;2022-09-03T05:38:24;1.50;;;1.03;;
21558;SDS011;10940;48.890;8.240;2022-09-03T05:40:49;1.80;;;1.17;;
21558;SDS011;10940;48.890;8.240;2022-09-03T05:43:15;2.13;;;1.47;;
21558;SDS011;10940;48.890;8.240;2022-09-03T05:45:41;0.63;;;0.63;;
21558;SDS011;10940;48.890;8.240;2022-09-03T05:48:06;1.57;;;1.23;;
21558;SDS011;10940;48.890;8.240;2022-09-03T05:50:32;2.80;;;1.60;;
21558;SDS011;10940;48.890;8.240;2022-09-03T05:52:57;0.73;;;0.73;;
21558;SDS011;10940;48.890;8.240;2022-09-03T05:55:23;0.77;;;0.77;;
21558;SDS011;10940;48.890;8.240;2022-09-03T05:57:52;9.30;;;1.47;;
21558;SDS011;10940;48.890;8.240;2022-09-03T06:00:18;0.97;;;0.90;;
21558;SDS011;10940;48.890;8.240;2022-09-03T06:02:51;1.27;;;1.17;;
21558;SDS011;10940;48.890;8.240;2022-09-03T06:05:17;2.97;;;1.73;;
21558;SDS011;10940;48.890;8.240;2022-09-03T06:07:43;1.43;;;1.33;;
21558;SDS011;10940;48.890;8.240;2022-09-03T06:10:09;1.10;;;1.00;;
21558;SDS011;10940;48.890;8.240;2022-09-03T06:12:36;1.13;;;1.13;;
21558;SDS011;10940;48.890;8.240;2022-09-03T06:15:02;3.33;;;1.50;;
21558;SDS011;10940;48.890;8.240;2022-09-03T06:17:29;1.50;;;1.40;;
21558;SDS011;10940;48.890;8.240;2022-09-03T06:19:55;3.30;;;1.03;;
21558;SDS011;10940;48.890;8.240;2022-09-03T06:22:21;1.50;;;1.40;;
21558;SDS011;10940;48.890;8.240;2022-09-03T06:24:49;2.90;;;1.53;;
21558;SDS011;10940;48.890;8.240;2022-09-03T06:27:14;0.97;;;0.97;;
21558;SDS011;10940;48.890;8.240;2022-09-03T06:29:40;1.63;;;1.53;;
21558;SDS011;10940;48.890;8.240;2022-09-03T06:32:06;1.37;;;1.10;;
21558;SDS011;10940;48.890;8.240;2022-09-03T06:34:31;19.63;;;1.83;;
21558;SDS011;10940;48.890;8.240;2022-09-03T06:36:57;1.60;;;1.50;;
21558;SDS011;10940;48.890;8.240;2022-09-03T06:39:23;1.40;;;1.30;;
21558;SDS011;10940;48.890;8.240;2022-09-03T06:41:49;6.10;;;1.90;;
21558;SDS011;10940;48.890;8.240;2022-09-03T06:44:16;1.80;;;1.50;;
21558;SDS011;10940;48.890;8.240;2022-09-03T06:46:42;1.47;;;0.90;;
21558;SDS011;10940;48.890;8.240;2022-09-03T06:49:08;2.83;;;1.57;;
21558;SDS011;10940;48.890;8.240;2022-09-03T06:51:34;2.20;;;1.80;;
21558;SDS011;10940;48.890;8.240;2022-09-03T06:54:05;0.80;;;0.80;;
21558;SDS011;10940;48.890;8.240;2022-09-03T06:56:32;1.73;;;1.63;;
21558;SDS011;10940;48.890;8.240;2022-09-03T06:59:02;1.03;;;1.03;;
21558;SDS011;10940;48.890;8.240;2022-09-03T07:01:30;2.17;;;1.50;;
21558;SDS011;10940;48.890;8.240;2022-09-03T07:03:57;1.33;;;1.23;;
21558;SDS011;10940;48.890;8.240;2022-09-03T07:06:25;4.03;;;1.70;;
21558;SDS011;10940;48.890;8.240;2022-09-03T07:08:56;1.47;;;1.30;;
21558;SDS011;10940;48.890;8.240;2022-09-03T07:11:23;1.00;;;1.00;;
21558;SDS011;10940;48.890;8.240;2022-09-03T07:13:51;2.43;;;1.30;;
21558;SDS011;10940;48.890;8.240;2022-09-03T07:16:25;1.37;;;1.20;;
21558;SDS011;10940;48.890;8.240;2022-09-03T07:18:56;1.80;;;1.70;;
21558;SDS011;10940;48.890;8.240;2022-09-03T07:21:23;2.40;;;1.50;;
21558;SDS011;10940;48.890;8.240;2022-09-03T07:23:50;4.83;;;1.83;;
21558;SDS011;10940;48.890;8.240;2022-09-03T07:26:24;1.07;;;0.97;;
21558;SDS011;10940;48.890;8.240;2022-09-03T07:28:51;2.33;;;1.90;;
21558;SDS011;10940;48.890;8.240;2022-09-03T07:31:28;3.70;;;1.67;;
21558;SDS011;10940;48.890;8.240;2022-09-03T07:33:56;1.33;;;1.17;;
21558;SDS011;10940;48.890;8.240;2022-09-03T07:36:23;1.83;;;1.67;;
21558;SDS011;10940;48.890;8.240;2022-09-03T07:38:50;1.90;;;1.70;;
21558;SDS011;10940;48.890;8.240;2022-09-03T07:41:18;1.30;;;1.20;;
21558;SDS011;10940;48.890;8.240;2022-09-03T07:43:44;1.30;;;1.20;;
21558;SDS011;10940;48.890;8.240;2022-09-03T07:46:14;2.20;;;1.60;;
21558;SDS011;10940;48.890;8.240;2022-09-03T07:48:48;2.43;;;1.40;;
21558;SDS011;10940;48.890;8.240;2022-09-03T07:51:15;1.57;;;1.47;;
21558;SDS011;10940;48.890;8.240;2022-09-03T07:53:42;1.67;;;1.57;;
21558;SDS011;10940;48.890;8.240;2022-09-03T07:56:09;1.93;;;1.50;;
21558;SDS011;10940;48.890;8.240;2022-09-03T07:58:36;1.33;;;1.23;;
21558;SDS011;10940;48.890;8.240;2022-09-03T08:01:04;1.80;;;1.53;;
21558;SDS011;10940;48.890;8.240;2022-09-03T08:03:32;4.17;;;1.60;;
21558;SDS011;10940;48.890;8.240;2022-09-03T08:06:01;1.67;;;1.57;;
21558;SDS011;10940;48.890;8.240;2022-09-03T08:08:28;1.27;;;1.17;;
21558;SDS011;10940;48.890;8.240;2022-09-03T08:10:55;3.63;;;1.50;;
21558;SDS011;10940;48.890;8.240;2022-09-03T08:13:35;1.77;;;1.40;;
21558;SDS011;10940;48.890;8.240;2022-09-03T08:16:18;2.23;;;1.87;;
21558;SDS011;10940;48.890;8.240;2022-09-03T08:18:44;17.67;;;2.67;;
21558;SDS011;10940;48.890;8.240;2022-09-03T08:21:15;1.10;;;1.00;;
21558;SDS011;10940;48.890;8.240;2022-09-03T08:23:44;1.17;;;1.00;;
21558;SDS011;10940;48.890;8.240;2022-09-03T08:26:11;5.27;;;2.10;;
21558;SDS011;10940;48.890;8.240;2022-09-03T08:28:38;3.10;;;1.77;;
21558;SDS011;10940;48.890;8.240;2022-09-03T08:31:08;2.30;;;2.10;;
21558;SDS011;10940;48.890;8.240;2022-09-03T08:33:37;4.23;;;2.37;;
21558;SDS011;10940;48.890;8.240;2022-09-03T08:36:05;1.20;;;1.10;;
21558;SDS011;10940;48.890;8.240;2022-09-03T08:38:32;1.67;;;1.57;;
21558;SDS011;10940;48.890;8.240;2022-09-03T08:49:39;5.33;;;2.40;;
21558;SDS011;10940;48.890;8.240;2022-09-03T08:52:15;3.27;;;1.93;;
21558;SDS011;10940;48.890;8.240;2022-09-03T08:54:44;1.37;;;1.30;;
21558;SDS011;10940;48.890;8.240;2022-09-03T08:57:13;1.60;;;1.50;;
21558;SDS011;10940;48.890;8.240;2022-09-03T08:59:40;1.53;;;1.43;;
21558;SDS011;10940;48.890;8.240;2022-09-03T09:10:19;1.47;;;1.37;;
21558;SDS011;10940;48.890;8.240;2022-09-03T09:13:06;1.87;;;1.73;;
21558;SDS011;10940;48.890;8.240;2022-09-03T09:21:15;1.77;;;1.50;;
21558;SDS011;10940;48.890;8.240;2022-09-03T09:23:48;2.20;;;1.57;;
21558;SDS011;10940;48.890;8.240;2022-09-03T09:26:19;1.67;;;1.40;;
21558;SDS011;10940;48.890;8.240;2022-09-03T09:28:46;1.90;;;1.53;;
21558;SDS011;10940;48.890;8.240;2022-09-03T09:31:19;1.23;;;1.13;;
21558;SDS011;10940;48.890;8.240;2022-09-03T09:33:45;1.13;;;1.03;;
21558;SDS011;10940;48.890;8.240;2022-09-03T09:36:11;0.93;;;0.80;;
21558;SDS011;10940;48.890;8.240;2022-09-03T09:38:43;1.47;;;1.37;;
21558;SDS011;10940;48.890;8.240;2022-09-03T09:41:14;1.30;;;1.20;;
21558;SDS011;10940;48.890;8.240;2022-09-03T09:43:40;2.43;;;1.63;;
21558;SDS011;10940;48.890;8.240;2022-09-03T09:48:48;1.43;;;1.33;;
21558;SDS011;10940;48.890;8.240;2022-09-03T09:51:23;1.17;;;1.17;;
21558;SDS011;10940;48.890;8.240;2022-09-03T09:54:09;1.20;;;1.13;;
21558;SDS011;10940;48.890;8.240;2022-09-03T09:56:42;1.37;;;1.10;;
21558;SDS011;10940;48.890;8.240;2022-09-03T09:59:09;2.20;;;1.03;;
21558;SDS011;10940;48.890;8.240;2022-09-03T10:01:39;1.73;;;1.53;;
21558;SDS011;10940;48.890;8.240;2022-09-03T10:04:23;6.67;;;1.33;;
21558;SDS011;10940;48.890;8.240;2022-09-03T10:06:53;1.50;;;1.40;;
21558;SDS011;10940;48.890;8.240;2022-09-03T10:09:24;0.93;;;0.93;;
21558;SDS011;10940;48.890;8.240;2022-09-03T10:23:10;4.23;;;1.30;;
21558;SDS011;10940;48.890;8.240;2022-09-03T10:28:34;1.53;;;1.40;;
21558;SDS011;10940;48.890;8.240;2022-09-03T10:34:05;1.10;;;1.00;;
21558;SDS011;10940;48.890;8.240;2022-09-03T10:36:46;1.30;;;1.20;;
21558;SDS011;10940;48.890;8.240;2022-09-03T10:45:27;0.73;;;0.73;;
21558;SDS011;10940;48.890;8.240;2022-09-03T10:51:04;1.00;;;1.00;;
21558;SDS011;10940;48.890;8.240;2022-09-03T10:56:16;0.80;;;0.80;;
21558;SDS011;10940;48.890;8.240;2022-09-03T11:02:14;1.53;;;1.17;;
21558;SDS011;10940;48.890;8.240;2022-09-03T11:04:58;1.10;;;1.00;;
21558;SDS011;10940;48.890;8.240;2022-09-03T11:07:28;0.83;;;0.83;;
21558;SDS011;10940;48.890;8.240;2022-09-03T11:10:21;0.87;;;0.80;;
21558;SDS011;10940;48.890;8.240;2022-09-03T11:13:11;0.80;;;0.80;;
21558;SDS011;10940;48.890;8.240;2022-09-03T11:15:47;2.70;;;1.80;;
21558;SDS011;10940;48.890;8.240;2022-09-03T11:21:03;0.80;;;0.80;;
21558;SDS011;10940;48.890;8.240;2022-09-03T11:23:35;0.93;;;0.77;;
21558;SDS011;10940;48.890;8.240;2022-09-03T11:26:06;4.13;;;1.37;;
21558;SDS011;10940;48.890;8.240;2022-09-03T11:36:51;1.87;;;1.30;;
21558;SDS011;10940;48.890;8.240;2022-09-03T11:41:59;2.80;;;1.00;;
21558;SDS011;10940;48.890;8.240;2022-09-03T11:47:11;0.80;;;0.80;;
21558;SDS011;10940;48.890;8.240;2022-09-03T11:49:43;0.83;;;0.70;;
21558;SDS011;10940;48.890;8.240;2022-09-03T11:52:23;0.80;;;0.80;;
21558;SDS011;10940;48.890;8.240;2022-09-03T11:54:51;1.70;;;1.13;;
21558;SDS011;10940;48.890;8.240;2022-09-03T11:57:25;1.47;;;1.27;;
21558;SDS011;10940;48.890;8.240;2022-09-03T12:00:06;0.87;;;0.87;;
21558;SDS011;10940;48.890;8.240;2022-09-03T12:02:35;0.80;;;0.80;;
21558;SDS011;10940;48.890;8.240;2022-09-03T12:05:22;0.80;;;0.67;;
21558;SDS011;10940;48.890;8.240;2022-09-03T12:13:31;1.13;;;0.77;;
21558;SDS011;10940;48.890;8.240;2022-09-03T12:19:10;1.70;;;0.60;;
21558;SDS011;10940;48.890;8.240;2022-09-03T12:21:51;1.10;;;0.80;;
21558;SDS011;10940;48.890;8.240;2022-09-03T12:24:18;0.60;;;0.60;;
21558;SDS011;10940;48.890;8.240;2022-09-03T12:26:44;1.13;;;0.70;;
21558;SDS011;10940;48.890;8.240;2022-09-03T12:29:19;1.60;;;1.20;;
21558;SDS011;10940;48.890;8.240;2022-09-03T12:31:47;1.20;;;1.10;;
21558;SDS011;10940;48.890;8.240;2022-09-03T12:34:15;2.23;;;1.07;;
21558;SDS011;10940;48.890;8.240;2022-09-03T12:36:43;1.77;;;1.20;;
21558;SDS011;10940;48.890;8.240;2022-09-03T12:39:18;0.83;;;0.83;;
21558;SDS011;10940;48.890;8.240;2022-09-03T12:44:31;0.70;;;0.70;;
21558;SDS011;10940;48.890;8.240;2022-09-03T12:47:05;3.60;;;1.50;;
21558;SDS011;10940;48.890;8.240;2022-09-03T12:49:38;0.80;;;0.80;;
21558;SDS011;10940;48.890;8.240;2022-09-03T12:52:11;0.70;;;0.70;;
21558;SDS011;10940;48.890;8.240;2022-09-03T12:54:41;2.07;;;1.57;;
21558;SDS011;10940;48.890;8.240;2022-09-03T12:57:12;0.40;;;0.40;;
21558;SDS011;10940;48.890;8.240;2022-09-03T12:59:44;0.57;;;0.57;;
21558;SDS011;10940;48.890;8.240;2022-09-03T13:02:21;0.30;;;0.30;;
21558;SDS011;10940;48.890;8.240;2022-09-03T13:04:51;0.63;;;0.63;;
21558;SDS011;10940;48.890;8.240;2022-09-03T13:07:26;0.30;;;0.23;;
21558;SDS011;10940;48.890;8.240;2022-09-03T13:10:05;0.30;;;0.30;;
21558;SDS011;10940;48.890;8.240;2022-09-03T13:12:42;0.20;;;0.20;;
21558;SDS011;10940;48.890;8.240;2022-09-03T13:15:16;0.20;;;0.20;;
21558;SDS011;10940;48.890;8.240;2022-09-03T13:17:51;4.90;;;0.50;;
21558;SDS011;10940;48.890;8.240;2022-09-03T13:20:24;0.30;;;0.30;;
21558;SDS011;10940;48.890;8.240;2022-09-03T13:25:24;0.70;;;0.50;;
21558;SDS011;10940;48.890;8.240;2022-09-03T13:28:09;0.10;;;0.10;;
21558;SDS011;10940;48.890;8.240;2022-09-03T13:33:49;0.20;;;0.20;;
21558;SDS011;10940;48.890;8.240;2022-09-03T13:36:23;0.83;;;0.77;;
21558;SDS011;10940;48.890;8.240;2022-09-03T13:44:08;0.40;;;0.40;;
21558;SDS011;10940;48.890;8.240;2022-09-03T13:46:55;0.60;;;0.20;;
21558;SDS011;10940;48.890;8.240;2022-09-03T13:52:36;0.30;;;0.30;;
21558;SDS011;10940;48.890;8.240;2022-09-03T13:55:31;1.63;;;0.63;;
21558;SDS011;10940;48.890;8.240;2022-09-03T13:58:15;0.20;;;0.20;;
21558;SDS011;10940;48.890;8.240;2022-09-03T14:01:06;0.10;;;0.10;;
21558;SDS011;10940;48.890;8.240;2022-09-03T14:04:20;0.30;;;0.30;;
21558;SDS011;10940;48.890;8.240;2022-09-03T14:06:44;0.10;;;0.10;;
21558;SDS011;10940;48.890;8.240;2022-09-03T14:11:52;0.87;;;0.30;;
21558;SDS011;10940;48.890;8.240;2022-09-03T14:17:24;0.20;;;0.20;;
21558;SDS011;10940;48.890;8.240;2022-09-03T14:20:21;1.23;;;0.57;;
21558;SDS011;10940;48.890;8.240;2022-09-03T14:25:51;0.20;;;0.20;;
21558;SDS011;10940;48.890;8.240;2022-09-03T14:28:28;0.27;;;0.27;;
21558;SDS011;10940;48.890;8.240;2022-09-03T14:31:04;0.17;;;0.17;;
21558;SDS011;10940;48.890;8.240;2022-09-03T14:36:51;0.50;;;0.40;;
21558;SDS011;10940;48.890;8.240;2022-09-03T15:08:01;0.20;;;0.20;;
21558;SDS011;10940;48.890;8.240;2022-09-03T15:13:26;0.93;;;0.70;;
21558;SDS011;10940;48.890;8.240;2022-09-03T15:23:55;0.20;;;0.20;;
21558;SDS011;10940;48.890;8.240;2022-09-03T15:37:26;0.30;;;0.30;;
21558;SDS011;10940;48.890;8.240;2022-09-03T15:39:58;0.67;;;0.30;;
21558;SDS011;10940;48.890;8.240;2022-09-03T15:42:29;0.10;;;0.10;;
21558;SDS011;10940;48.890;8.240;2022-09-03T15:45:00;0.73;;;0.73;;
21558;SDS011;10940;48.890;8.240;2022-09-03T15:47:47;0.23;;;0.23;;
21558;SDS011;10940;48.890;8.240;2022-09-03T15:50:25;0.40;;;0.40;;
21558;SDS011;10940;48.890;8.240;2022-09-03T15:53:00;0.17;;;0.17;;
21558;SDS011;10940;48.890;8.240;2022-09-03T15:55:49;0.00;;;0.00;;
21558;SDS011;10940;48.890;8.240;2022-09-03T15:58:33;0.37;;;0.37;;
21558;SDS011;10940;48.890;8.240;2022-09-03T16:09:04;0.40;;;0.20;;
21558;SDS011;10940;48.890;8.240;2022-09-03T16:12:09;2.00;;;0.50;;
21558;SDS011;10940;48.890;8.240;2022-09-03T16:14:57;0.23;;;0.23;;
21558;SDS011;10940;48.890;8.240;2022-09-03T16:17:32;0.30;;;0.30;;
21558;SDS011;10940;48.890;8.240;2022-09-03T16:20:05;0.20;;;0.20;;
21558;SDS011;10940;48.890;8.240;2022-09-03T16:22:42;0.30;;;0.30;;
21558;SDS011;10940;48.890;8.240;2022-09-03T16:25:21;0.20;;;0.20;;
21558;SDS011;10940;48.890;8.240;2022-09-03T16:39:11;0.10;;;0.10;;
21558;SDS011;10940;48.890;8.240;2022-09-03T16:41:47;0.10;;;0.10;;
21558;SDS011;10940;48.890;8.240;2022-09-03T16:49:35;2.57;;;0.87;;
21558;SDS011;10940;48.890;8.240;2022-09-03T16:58:21;0.77;;;0.77;;
21558;SDS011;10940;48.890;8.240;2022-09-03T17:00:58;0.17;;;0.17;;
21558;SDS011;10940;48.890;8.240;2022-09-03T17:07:18;0.60;;;0.50;;
21558;SDS011;10940;48.890;8.240;2022-09-03T17:13:00;0.20;;;0.20;;
21558;SDS011;10940;48.890;8.240;2022-09-03T17:31:58;0.20;;;0.20;;
21558;SDS011;10940;48.890;8.240;2022-09-03T17:35:29;0.20;;;0.20;;
21558;SDS011;10940;48.890;8.240;2022-09-03T17:40:40;0.30;;;0.30;;
21558;SDS011;10940;48.890;8.240;2022-09-03T17:43:38;0.93;;;0.37;;
21558;SDS011;10940;48.890;8.240;2022-09-03T17:48:53;0.50;;;0.50;;
21558;SDS011;10940;48.890;8.240;2022-09-03T17:51:30;0.50;;;0.50;;
21558;SDS011;10940;48.890;8.240;2022-09-03T17:54:43;0.10;;;0.10;;
21558;SDS011;10940;48.890;8.240;2022-09-03T17:57:20;0.30;;;0.30;;
21558;SDS011;10940;48.890;8.240;2022-09-03T18:00:04;0.67;;;0.67;;
21558;SDS011;10940;48.890;8.240;2022-09-03T18:05:16;0.53;;;0.53;;
21558;SDS011;10940;48.890;8.240;2022-09-03T18:07:48;1.40;;;1.03;;
21558;SDS011;10940;48.890;8.240;2022-09-03T18:15:49;0.77;;;0.77;;
21558;SDS011;10940;48.890;8.240;2022-09-03T18:18:27;0.20;;;0.20;;
21558;SDS011;10940;48.890;8.240;2022-09-03T18:21:16;2.67;;;0.50;;
21558;SDS011;10940;48.890;8.240;2022-09-03T18:30:18;0.53;;;0.53;;
21558;SDS011;10940;48.890;8.240;2022-09-03T18:33:02;0.83;;;0.43;;
21558;SDS011;10940;48.890;8.240;2022-09-03T18:35:46;0.50;;;0.50;;
21558;SDS011;10940;48.890;8.240;2022-09-03T18:38:32;0.90;;;0.53;;
21558;SDS011;10940;48.890;8.240;2022-09-03T18:47:40;0.30;;;0.30;;
21558;SDS011;10940;48.890;8.240;2022-09-03T18:53:49;0.57;;;0.57;;
21558;SDS011;10940;48.890;8.240;2022-09-03T18:56:55;1.13;;;1.03;;
21558;SDS011;10940;48.890;8.240;2022-09-03T19:08:51;0.33;;;0.33;;
21558;SDS011;10940;48.890;8.240;2022-09-03T19:21:00;2.20;;;0.40;;
21558;SDS011;10940;48.890;8.240;2022-09-03T19:23:54;0.83;;;0.47;;
21558;SDS011;10940;48.890;8.240;2022-09-03T19:33:12;4.13;;;0.50;;
21558;SDS011;10940;48.890;8.240;2022-09-03T19:39:13;0.70;;;0.67;;
21558;SDS011;10940;48.890;8.240;2022-09-03T19:42:18;0.30;;;0.30;;
21558;SDS011;10940;48.890;8.240;2022-09-03T19:45:22;0.53;;;0.50;;
21558;SDS011;10940;48.890;8.240;2022-09-03T19:54:29;0.57;;;0.37;;
21558;SDS011;10940;48.890;8.240;2022-09-03T19:57:15;0.50;;;0.50;;
21558;SDS011;10940;48.890;8.240;2022-09-03T20:00:03;0.53;;;0.53;;
21558;SDS011;10940;48.890;8.240;2022-09-03T20:02:48;0.23;;;0.23;;
21558;SDS011;10940;48.890;8.240;2022-09-03T20:05:32;0.27;;;0.27;;
21558;SDS011;10940;48.890;8.240;2022-09-03T20:08:19;0.57;;;0.57;;
21558;SDS011;10940;48.890;8.240;2022-09-03T20:11:05;0.30;;;0.30;;
21558;SDS011;10940;48.890;8.240;2022-09-03T20:13:45;6.17;;;0.60;;
21558;SDS011;10940;48.890;8.240;2022-09-03T20:16:38;0.30;;;0.30;;
21558;SDS011;10940;48.890;8.240;2022-09-03T20:21:36;0.40;;;0.40;;
21558;SDS011;10940;48.890;8.240;2022-09-03T20:29:34;0.73;;;0.50;;
21558;SDS011;10940;48.890;8.240;2022-09-03T20:32:07;0.20;;;0.20;;
21558;SDS011;10940;48.890;8.240;2022-09-03T20:40:28;0.67;;;0.67;;
21558;SDS011;10940;48.890;8.240;2022-09-03T20:45:31;1.13;;;1.03;;
21558;SDS011;10940;48.890;8.240;2022-09-03T20:48:17;2.17;;;1.37;;
21558;SDS011;10940;48.890;8.240;2022-09-03T20:55:53;0.87;;;0.73;;
21558;SDS011;10940;48.890;8.240;2022-09-03T21:01:08;0.50;;;0.40;;
21558;SDS011;10940;48.890;8.240;2022-09-03T21:09:06;1.80;;;0.70;;
21558;SDS011;10940;48.890;8.240;2022-09-03T21:23:09;0.17;;;0.17;;
21558;SDS011;10940;48.890;8.240;2022-09-03T21:34:19;1.10;;;0.73;;
21558;SDS011;10940;48.890;8.240;2022-09-03T21:36:51;0.50;;;0.47;;
21558;SDS011;10940;48.890;8.240;2022-09-03T21:39:21;0.40;;;0.40;;
21558;SDS011;10940;48.890;8.240;2022-09-03T21:42:12;0.30;;;0.30;;
21558;SDS011;10940;48.890;8.240;2022-09-03T21:44:46;2.90;;;0.47;;